You are listening to:
RJTT Del/Twr/TCA/Gnd - Tokyo, Japan

RJTT 121600Z 36015KT 9999 FEW030 BKN/// 15/10 Q1017 NOSIG

If stream doesn't start automatically press the play button
If stream stops then reload player then press play